Time;durP1;ratioP1;P1;durP2;ratioP2;P2;SDS_P1;SDS_P2;PMS_P1;PMS_P2;Temp;Humidity;BMP_temperature;BMP_pressure;BME280_temperature;BME280_humidity;BME280_pressure;Samples;Min_cycle;Max_cycle;Signal;HPM_P1;HPM_P2
2022/05/15 00:01:39;;;;;;;;;10.67;9.67;;;;;;;;5119706;27;45407;-77
2022/05/15 00:04:04;;;;;;;;;10.67;10.33;;;;;;;;5118351;27;46040;-78
2022/05/15 00:06:29;;;;;;;;;9.00;9.00;;;;;;;;5119938;27;45414;-78
2022/05/15 00:08:55;;;;;;;;;10.00;9.00;;;;;;;;5119917;27;45625;-77
2022/05/15 00:11:20;;;;;;;;;13.00;11.00;;;;;;;;5118375;27;45894;-77
2022/05/15 00:13:46;;;;;;;;;9.33;9.33;;;;;;;;5119737;27;45314;-78
2022/05/15 00:16:11;;;;;;;;;8.67;8.67;;;;;;;;5105814;27;45318;-78
2022/05/15 00:18:38;;;;;;;;;10.00;8.67;;;;;;;;5102730;27;45248;-78
2022/05/15 00:21:03;;;;;;;;;7.67;7.67;;;;;;;;5102571;27;45223;-78
2022/05/15 00:23:28;;;;;;;;;11.00;11.00;;;;;;;;5100824;27;47295;-78
2022/05/15 00:25:54;;;;;;;;;8.00;8.00;;;;;;;;5101257;27;45269;-78
2022/05/15 00:28:19;;;;;;;;;8.00;8.00;;;;;;;;5101337;27;45204;-78
2022/05/15 00:30:44;;;;;;;;;7.67;7.67;;;;;;;;5102205;27;45173;-78
2022/05/15 00:33:10;;;;;;;;;6.00;6.00;;;;;;;;5102062;27;45211;-78
2022/05/15 00:35:35;;;;;;;;;8.00;7.00;;;;;;;;5101147;27;45298;-78
2022/05/15 00:38:08;;;;;;;;;9.00;8.00;;;;;;;;5102324;27;45559;-78
2022/05/15 00:40:34;;;;;;;;;7.00;6.00;;;;;;;;5102366;27;45206;-78
2022/05/15 00:43:00;;;;;;;;;7.33;7.33;;;;;;;;5102095;27;46371;-78
2022/05/15 00:45:26;;;;;;;;;7.67;7.67;;;;;;;;5101991;27;45355;-78
2022/05/15 00:47:51;;;;;;;;;7.00;7.00;;;;;;;;5102466;27;45299;-78
2022/05/15 00:50:21;;;;;;;;;7.67;7.67;;;;;;;;5100760;27;46059;-78
2022/05/15 00:52:48;;;;;;;;;9.67;9.67;;;;;;;;5101974;27;45327;-78
2022/05/15 00:55:19;;;;;;;;;7.00;7.00;;;;;;;;5100783;27;45730;-78
2022/05/15 00:57:47;;;;;;;;;7.67;7.67;;;;;;;;5102213;27;45370;-77
2022/05/15 01:00:32;;;;;;;;;9.00;8.00;;;;;;;;5101635;27;45246;-78
2022/05/15 01:03:04;;;;;;;;;7.67;6.00;;;;;;;;5100493;27;47949;-78
2022/05/15 01:05:32;;;;;;;;;7.00;7.00;;;;;;;;5100539;27;46007;-78
2022/05/15 01:07:58;;;;;;;;;8.00;7.00;;;;;;;;5102010;27;45233;-78
2022/05/15 01:10:23;;;;;;;;;7.33;7.00;;;;;;;;5100623;27;46324;-78
2022/05/15 01:12:49;;;;;;;;;7.67;7.67;;;;;;;;5101632;27;46189;-78
2022/05/15 01:15:17;;;;;;;;;9.67;9.67;;;;;;;;5107267;27;45337;-77
2022/05/15 01:17:42;;;;;;;;;7.00;6.67;;;;;;;;5121226;27;45373;-78
2022/05/15 01:20:13;;;;;;;;;6.00;6.00;;;;;;;;5120806;27;45851;-78
2022/05/15 01:22:39;;;;;;;;;9.00;9.00;;;;;;;;5122180;27;45301;-78
2022/05/15 01:25:09;;;;;;;;;8.00;7.00;;;;;;;;5122135;27;45339;-81
2022/05/15 01:27:35;;;;;;;;;6.33;6.33;;;;;;;;5120764;27;45414;-78
2022/05/15 01:30:00;;;;;;;;;7.00;7.00;;;;;;;;5121309;27;45336;-78
2022/05/15 01:32:25;;;;;;;;;8.67;8.33;;;;;;;;5120513;27;47957;-78
2022/05/15 01:34:50;;;;;;;;;9.00;9.00;;;;;;;;5122011;27;45321;-78
2022/05/15 01:37:16;;;;;;;;;6.00;6.00;;;;;;;;5120766;27;45311;-79
2022/05/15 01:39:41;;;;;;;;;5.00;5.00;;;;;;;;5121975;27;45371;-78
2022/05/15 01:42:06;;;;;;;;;6.33;6.33;;;;;;;;5120526;27;48533;-78
2022/05/15 01:44:33;;;;;;;;;7.33;7.33;;;;;;;;5120300;27;45310;-78
2022/05/15 01:46:58;;;;;;;;;9.67;9.00;;;;;;;;5120650;27;45380;-78
2022/05/15 01:49:23;;;;;;;;;8.00;8.00;;;;;;;;5120263;27;45880;-78
2022/05/15 01:51:48;;;;;;;;;7.00;7.00;;;;;;;;5121633;27;46242;-78
2022/05/15 01:54:14;;;;;;;;;6.67;5.33;;;;;;;;5121663;27;45318;-78
2022/05/15 01:56:39;;;;;;;;;8.33;7.67;;;;;;;;5121892;27;45276;-78
2022/05/15 01:59:06;;;;;;;;;6.00;6.00;;;;;;;;5120217;27;45549;-78
2022/05/15 02:01:31;;;;;;;;;6.67;6.00;;;;;;;;5121504;27;46315;-78
2022/05/15 02:03:56;;;;;;;;;8.00;7.00;;;;;;;;5121481;27;45250;-78
2022/05/15 02:06:22;;;;;;;;;6.33;6.33;;;;;;;;5120512;27;45344;-78
2022/05/15 02:08:48;;;;;;;;;8.67;7.67;;;;;;;;5121355;27;45355;-78
2022/05/15 02:11:13;;;;;;;;;8.00;7.33;;;;;;;;5121450;27;45448;-78
2022/05/15 02:13:38;;;;;;;;;7.67;7.33;;;;;;;;5119938;27;45370;-78
2022/05/15 02:16:03;;;;;;;;;7.33;7.33;;;;;;;;5108273;27;45356;-78
2022/05/15 02:18:29;;;;;;;;;5.33;5.00;;;;;;;;5100628;27;45490;-78
2022/05/15 02:20:54;;;;;;;;;7.00;7.00;;;;;;;;5100774;27;45327;-78
2022/05/15 02:23:19;;;;;;;;;7.00;7.00;;;;;;;;5099293;27;45780;-78
2022/05/15 02:25:44;;;;;;;;;7.33;7.33;;;;;;;;5100884;27;45325;-78
2022/05/15 02:28:09;;;;;;;;;9.00;9.00;;;;;;;;5100462;27;45328;-78
2022/05/15 02:30:35;;;;;;;;;12.00;9.33;;;;;;;;5100279;27;45356;-78
2022/05/15 02:33:01;;;;;;;;;10.00;7.67;;;;;;;;5100381;27;45455;-78
2022/05/15 02:35:26;;;;;;;;;9.00;8.00;;;;;;;;5100797;27;45399;-78
2022/05/15 02:37:51;;;;;;;;;10.00;8.00;;;;;;;;5100097;27;45301;-78
2022/05/15 02:40:18;;;;;;;;;9.00;9.00;;;;;;;;5099248;27;45341;-78
2022/05/15 02:42:44;;;;;;;;;8.00;7.67;;;;;;;;5100443;27;45252;-78
2022/05/15 02:45:10;;;;;;;;;7.00;7.00;;;;;;;;5098868;27;45263;-78
2022/05/15 02:47:35;;;;;;;;;10.00;8.00;;;;;;;;5100196;27;45266;-78
2022/05/15 02:52:44;;;;;;;;;9.00;9.00;;;;;;;;5099974;27;45241;-78
2022/05/15 02:55:10;;;;;;;;;8.00;8.00;;;;;;;;5098921;27;45340;-78
2022/05/15 02:57:36;;;;;;;;;8.00;7.00;;;;;;;;5100181;27;45503;-79
2022/05/15 03:00:03;;;;;;;;;8.33;6.33;;;;;;;;5098256;27;48299;-78
2022/05/15 03:02:28;;;;;;;;;7.00;7.00;;;;;;;;5099971;27;45319;-78
2022/05/15 03:04:53;;;;;;;;;8.33;7.00;;;;;;;;5100058;27;45378;-78
2022/05/15 03:07:18;;;;;;;;;7.33;7.33;;;;;;;;5100089;27;45590;-78
2022/05/15 03:09:46;;;;;;;;;7.67;7.67;;;;;;;;5100106;27;46479;-78
2022/05/15 03:12:11;;;;;;;;;7.67;7.33;;;;;;;;5100056;27;45315;-78
2022/05/15 03:14:36;;;;;;;;;8.33;8.33;;;;;;;;5100361;27;45321;-78
2022/05/15 03:17:01;;;;;;;;;8.67;7.00;;;;;;;;5119136;27;46154;-78
2022/05/15 03:19:26;;;;;;;;;8.00;8.00;;;;;;;;5119003;27;48044;-78
2022/05/15 03:21:52;;;;;;;;;9.67;9.67;;;;;;;;5119000;27;45376;-78
2022/05/15 03:24:18;;;;;;;;;7.33;6.33;;;;;;;;5120649;27;45324;-78
2022/05/15 03:26:44;;;;;;;;;6.00;6.00;;;;;;;;5120394;27;45177;-78
2022/05/15 03:29:11;;;;;;;;;7.33;7.33;;;;;;;;5118711;27;47649;-78
2022/05/15 03:31:36;;;;;;;;;10.00;10.00;;;;;;;;5120028;27;45400;-78
2022/05/15 03:34:02;;;;;;;;;9.00;8.00;;;;;;;;5120403;27;45353;-78
2022/05/15 03:36:27;;;;;;;;;11.00;8.33;;;;;;;;5120028;27;45668;-78
2022/05/15 03:38:53;;;;;;;;;8.00;7.00;;;;;;;;5119845;27;45969;-78
2022/05/15 03:41:18;;;;;;;;;9.00;9.00;;;;;;;;5120401;27;45309;-78
2022/05/15 03:43:43;;;;;;;;;9.33;9.33;;;;;;;;5119053;27;45392;-78
2022/05/15 03:46:08;;;;;;;;;6.67;6.67;;;;;;;;5118529;27;46919;-78
2022/05/15 03:48:34;;;;;;;;;8.00;8.00;;;;;;;;5118753;27;45975;-78
2022/05/15 03:50:59;;;;;;;;;10.33;10.00;;;;;;;;5120329;27;45394;-78
2022/05/15 03:53:25;;;;;;;;;9.33;9.00;;;;;;;;5122476;27;45348;-78
2022/05/15 03:55:55;;;;;;;;;7.33;7.00;;;;;;;;5123556;27;45366;-78
2022/05/15 03:58:20;;;;;;;;;10.00;8.00;;;;;;;;5123460;27;46065;-78
2022/05/15 04:00:46;;;;;;;;;10.00;10.00;;;;;;;;5123187;27;45633;-77
2022/05/15 04:03:11;;;;;;;;;9.67;9.67;;;;;;;;5123630;27;45428;-78
2022/05/15 04:05:36;;;;;;;;;9.00;8.33;;;;;;;;5123407;27;45501;-78
2022/05/15 04:08:02;;;;;;;;;8.00;8.00;;;;;;;;5123365;27;46015;-78
2022/05/15 04:10:30;;;;;;;;;9.00;7.00;;;;;;;;5123192;27;45314;-77
2022/05/15 04:12:55;;;;;;;;;8.00;8.00;;;;;;;;5123375;27;45399;-78
2022/05/15 04:15:20;;;;;;;;;10.33;8.00;;;;;;;;5114690;27;46965;-78
2022/05/15 04:17:47;;;;;;;;;10.00;10.00;;;;;;;;5101131;27;48478;-78
2022/05/15 04:20:14;;;;;;;;;10.00;9.67;;;;;;;;5102645;27;45148;-77
2022/05/15 04:22:39;;;;;;;;;8.67;8.33;;;;;;;;5101234;27;45402;-77
2022/05/15 04:25:04;;;;;;;;;9.67;9.67;;;;;;;;5100946;27;45996;-78
2022/05/15 04:27:30;;;;;;;;;9.00;8.33;;;;;;;;5102575;27;45604;-78
2022/05/15 04:29:55;;;;;;;;;6.00;6.00;;;;;;;;5102424;27;45235;-78
2022/05/15 04:32:21;;;;;;;;;9.00;9.00;;;;;;;;5100924;27;45374;-77
2022/05/15 04:34:46;;;;;;;;;9.33;9.33;;;;;;;;5102514;27;45396;-78
2022/05/15 04:37:11;;;;;;;;;9.00;9.00;;;;;;;;5102115;27;45322;-78
2022/05/15 04:39:36;;;;;;;;;10.33;9.00;;;;;;;;5102331;27;45341;-77
2022/05/15 04:42:02;;;;;;;;;10.33;9.00;;;;;;;;5101196;27;45738;-78
2022/05/15 04:44:27;;;;;;;;;9.00;8.33;;;;;;;;5100447;27;46226;-78
2022/05/15 04:46:52;;;;;;;;;9.00;9.00;;;;;;;;5102262;27;45328;-78
2022/05/15 04:49:18;;;;;;;;;9.00;9.00;;;;;;;;5093139;27;45371;-80
2022/05/15 04:51:43;;;;;;;;;8.00;8.00;;;;;;;;5080052;27;45390;-78
2022/05/15 04:54:08;;;;;;;;;9.00;8.67;;;;;;;;5078471;28;46168;-78
2022/05/15 04:56:33;;;;;;;;;8.67;7.67;;;;;;;;5081354;28;45987;-78
2022/05/15 04:58:58;;;;;;;;;7.00;6.67;;;;;;;;5081425;28;45402;-78
2022/05/15 05:01:25;;;;;;;;;7.00;7.00;;;;;;;;5078841;28;45409;-78
2022/05/15 05:03:52;;;;;;;;;7.00;7.00;;;;;;;;5078945;28;46176;-77
2022/05/15 05:06:17;;;;;;;;;8.33;8.00;;;;;;;;5079700;28;48373;-78
2022/05/15 05:08:42;;;;;;;;;7.00;7.00;;;;;;;;5081236;28;45240;-78
2022/05/15 05:11:07;;;;;;;;;7.33;6.33;;;;;;;;5081458;28;45462;-78
2022/05/15 05:13:32;;;;;;;;;8.00;7.00;;;;;;;;5080032;28;45312;-78
2022/05/15 05:15:57;;;;;;;;;9.33;9.00;;;;;;;;5104973;27;46610;-78
2022/05/15 05:18:23;;;;;;;;;8.67;7.00;;;;;;;;5122404;27;45218;-78
2022/05/15 05:20:48;;;;;;;;;7.67;7.67;;;;;;;;5122401;27;45305;-78
2022/05/15 05:23:13;;;;;;;;;8.33;8.33;;;;;;;;5122068;27;45280;-78
2022/05/15 05:25:39;;;;;;;;;9.00;8.00;;;;;;;;5122136;27;45304;-78
2022/05/15 05:28:04;;;;;;;;;8.33;8.00;;;;;;;;5122168;27;45314;-78
2022/05/15 05:30:30;;;;;;;;;7.00;7.00;;;;;;;;5120602;27;45261;-78
2022/05/15 05:32:55;;;;;;;;;8.00;6.00;;;;;;;;5121696;27;45230;-78
2022/05/15 05:35:21;;;;;;;;;9.00;8.00;;;;;;;;5120719;27;46907;-78
2022/05/15 05:37:47;;;;;;;;;6.33;6.33;;;;;;;;5121953;27;45415;-78
2022/05/15 05:40:12;;;;;;;;;6.00;6.00;;;;;;;;5086108;27;45555;-78
2022/05/15 05:42:37;;;;;;;;;8.00;7.33;;;;;;;;5079033;27;46839;-78
2022/05/15 05:45:04;;;;;;;;;6.67;6.00;;;;;;;;5078678;27;47213;-77
2022/05/15 05:47:29;;;;;;;;;6.67;6.67;;;;;;;;5078900;27;45488;-78
2022/05/15 05:49:55;;;;;;;;;5.33;5.33;;;;;;;;5080357;27;45903;-78
2022/05/15 05:52:21;;;;;;;;;6.00;6.00;;;;;;;;5080425;27;45374;-78
2022/05/15 05:54:46;;;;;;;;;5.33;5.33;;;;;;;;5080546;27;45167;-78
2022/05/15 05:57:11;;;;;;;;;7.00;7.00;;;;;;;;5080885;27;45152;-79
2022/05/15 05:59:37;;;;;;;;;8.00;8.00;;;;;;;;5080656;27;45207;-77
2022/05/15 06:02:02;;;;;;;;;6.67;6.67;;;;;;;;5080472;28;45424;-79
2022/05/15 06:04:41;;;;;;;;;6.00;6.00;;;;;;;;5080407;27;45583;-80
2022/05/15 06:07:08;;;;;;;;;6.00;6.00;;;;;;;;5079051;28;45645;-80
2022/05/15 06:09:35;;;;;;;;;6.00;6.00;;;;;;;;5079033;28;45298;-79
2022/05/15 06:12:00;;;;;;;;;9.00;6.33;;;;;;;;5080145;28;45414;-80
2022/05/15 06:14:26;;;;;;;;;6.67;6.67;;;;;;;;5079919;27;45399;-81
2022/05/15 06:16:51;;;;;;;;;7.00;7.00;;;;;;;;5118001;27;45258;-78
2022/05/15 06:19:16;;;;;;;;;8.00;7.67;;;;;;;;5120313;27;45212;-78
2022/05/15 06:21:42;;;;;;;;;6.67;6.67;;;;;;;;5119813;27;46262;-79
2022/05/15 06:24:07;;;;;;;;;8.00;8.00;;;;;;;;5121246;27;45284;-79
2022/05/15 06:26:32;;;;;;;;;7.67;6.67;;;;;;;;5121446;27;45268;-77
2022/05/15 06:28:57;;;;;;;;;6.00;6.00;;;;;;;;5103093;27;45405;-78
2022/05/15 06:31:22;;;;;;;;;8.00;8.00;;;;;;;;5079910;27;45484;-77
2022/05/15 06:33:48;;;;;;;;;7.00;6.33;;;;;;;;5080166;27;45211;-77
2022/05/15 06:36:13;;;;;;;;;6.00;6.00;;;;;;;;5078832;28;45373;-77
2022/05/15 06:38:41;;;;;;;;;5.67;5.67;;;;;;;;5079892;28;45212;-76
2022/05/15 06:41:09;;;;;;;;;5.00;5.00;;;;;;;;5079843;27;45687;-76
2022/05/15 06:43:35;;;;;;;;;9.00;7.67;;;;;;;;5078792;28;47443;-78
2022/05/15 06:46:00;;;;;;;;;6.00;4.67;;;;;;;;5079780;27;45389;-77
2022/05/15 06:48:25;;;;;;;;;7.00;7.00;;;;;;;;5080497;27;45292;-78
2022/05/15 06:50:50;;;;;;;;;6.67;6.67;;;;;;;;5079838;27;45415;-76
2022/05/15 06:53:16;;;;;;;;;5.00;5.00;;;;;;;;5079921;28;45361;-77
2022/05/15 06:57:28;;;;;;;;;4.67;4.67;;;;;;;;5079926;27;45223;-77
2022/05/15 06:58:27;;;;;;;;;6.33;4.67;;;;;;;;5079315;27;45504;-78
2022/05/15 07:00:52;;;;;;;;;7.00;7.00;;;;;;;;5080335;27;46558;-76
2022/05/15 07:03:17;;;;;;;;;5.00;4.33;;;;;;;;5079659;27;45206;-77
2022/05/15 07:05:42;;;;;;;;;5.00;5.00;;;;;;;;5079762;27;45236;-76
2022/05/15 07:08:10;;;;;;;;;6.33;5.67;;;;;;;;5079692;27;45271;-76
2022/05/15 07:10:35;;;;;;;;;6.67;6.00;;;;;;;;5080781;27;45317;-76
2022/05/15 07:13:00;;;;;;;;;6.00;5.00;;;;;;;;5078161;28;47357;-76
2022/05/15 07:15:25;;;;;;;;;7.33;5.33;;;;;;;;5092861;27;45680;-76
2022/05/15 07:17:50;;;;;;;;;5.33;5.33;;;;;;;;5120669;27;45207;-75
2022/05/15 07:20:16;;;;;;;;;6.00;6.00;;;;;;;;5105308;27;47295;-75
2022/05/15 07:22:41;;;;;;;;;4.67;3.67;;;;;;;;5079258;27;45401;-77
2022/05/15 07:25:06;;;;;;;;;5.33;5.33;;;;;;;;5079326;27;45305;-75
2022/05/15 07:27:31;;;;;;;;;4.67;4.67;;;;;;;;5081980;27;45388;-76
2022/05/15 07:29:57;;;;;;;;;7.00;7.00;;;;;;;;5081415;28;46751;-76
2022/05/15 07:32:22;;;;;;;;;5.00;5.00;;;;;;;;5082959;28;46438;-77
2022/05/15 07:34:47;;;;;;;;;5.00;4.00;;;;;;;;5083659;28;45396;-77
2022/05/15 07:37:12;;;;;;;;;12.67;11.67;;;;;;;;5083109;27;45487;-78
2022/05/15 07:39:38;;;;;;;;;4.67;4.67;;;;;;;;5081581;28;47289;-77
2022/05/15 07:42:03;;;;;;;;;4.00;4.00;;;;;;;;5082773;28;45377;-77
2022/05/15 07:44:28;;;;;;;;;5.67;5.00;;;;;;;;5082274;27;45321;-77
2022/05/15 07:46:53;;;;;;;;;7.00;5.00;;;;;;;;5082317;28;45474;-78
2022/05/15 07:49:19;;;;;;;;;6.00;5.33;;;;;;;;5082802;27;45412;-77
2022/05/15 07:51:47;;;;;;;;;6.33;5.00;;;;;;;;5082612;28;46073;-75
2022/05/15 07:54:13;;;;;;;;;4.67;4.67;;;;;;;;5082264;27;45297;-77
2022/05/15 07:56:38;;;;;;;;;5.33;4.67;;;;;;;;5081049;28;45744;-76
2022/05/15 07:59:04;;;;;;;;;2.33;2.33;;;;;;;;5082400;27;45736;-76
2022/05/15 08:01:29;;;;;;;;;4.33;4.33;;;;;;;;5080884;28;48147;-76
2022/05/15 08:03:55;;;;;;;;;4.67;4.67;;;;;;;;5082200;28;45244;-76
2022/05/15 08:09:06;;;;;;;;;4.33;4.33;;;;;;;;5083977;27;45266;-75
2022/05/15 08:11:31;;;;;;;;;6.00;6.00;;;;;;;;5080692;27;45737;-75
2022/05/15 08:13:57;;;;;;;;;5.33;5.33;;;;;;;;5079885;27;45746;-75
2022/05/15 08:16:23;;;;;;;;;6.00;5.67;;;;;;;;5109864;27;45396;-76
2022/05/15 08:24:16;;;;;;;;;3.67;3.00;;;;;;;;5121243;27;45676;-75
2022/05/15 08:26:44;;;;;;;;;4.33;4.33;;;;;;;;5121380;27;45400;-76
2022/05/15 08:29:09;;;;;;;;;4.00;4.00;;;;;;;;5120722;27;45415;-75
2022/05/15 08:31:34;;;;;;;;;6.33;5.00;;;;;;;;5121441;27;45958;-75
2022/05/15 08:33:59;;;;;;;;;6.33;6.33;;;;;;;;5122180;27;45368;-75
2022/05/15 08:36:25;;;;;;;;;4.00;4.00;;;;;;;;5122226;27;45609;-75
2022/05/15 08:38:50;;;;;;;;;5.00;5.00;;;;;;;;5122355;27;45639;-75
2022/05/15 08:41:17;;;;;;;;;4.00;3.33;;;;;;;;5121593;27;47089;-76
2022/05/15 08:43:47;;;;;;;;;4.00;4.00;;;;;;;;5122520;27;45344;-75
2022/05/15 08:46:15;;;;;;;;;4.00;3.33;;;;;;;;5123063;27;45371;-75
2022/05/15 08:48:41;;;;;;;;;3.00;3.00;;;;;;;;5122149;27;45298;-75
2022/05/15 08:51:10;;;;;;;;;4.33;3.33;;;;;;;;5122635;27;46014;-76
2022/05/15 08:53:37;;;;;;;;;4.00;4.00;;;;;;;;5122452;27;45290;-74
2022/05/15 08:56:07;;;;;;;;;5.00;5.00;;;;;;;;5122389;27;45360;-77
2022/05/15 08:58:38;;;;;;;;;4.67;4.33;;;;;;;;5114414;27;46043;-76
2022/05/15 09:01:05;;;;;;;;;4.00;4.00;;;;;;;;5084029;27;46186;-76
2022/05/15 09:03:33;;;;;;;;;3.67;3.67;;;;;;;;5082981;27;45342;-75
2022/05/15 09:06:09;;;;;;;;;4.33;4.33;;;;;;;;5087335;27;45354;-74
2022/05/15 09:09:04;;;;;;;;;4.00;4.00;;;;;;;;5096960;27;45251;-75
2022/05/15 09:11:39;;;;;;;;;4.00;4.00;;;;;;;;5081195;27;45354;-75
2022/05/15 09:14:34;;;;;;;;;3.00;3.00;;;;;;;;5085860;27;45649;-76
2022/05/15 09:17:17;;;;;;;;;4.00;4.00;;;;;;;;5045161;27;45465;-74
2022/05/15 09:19:43;;;;;;;;;3.67;3.67;;;;;;;;5083738;27;45419;-76
2022/05/15 09:22:11;;;;;;;;;5.00;3.33;;;;;;;;5082722;27;45969;-77
2022/05/15 09:24:38;;;;;;;;;3.00;3.00;;;;;;;;5100407;27;45483;-76
2022/05/15 09:27:11;;;;;;;;;2.67;2.67;;;;;;;;5088856;27;45362;-75
2022/05/15 09:29:37;;;;;;;;;4.00;4.00;;;;;;;;5080684;28;45492;-76
2022/05/15 09:32:03;;;;;;;;;3.67;3.67;;;;;;;;5091297;27;48189;-76
2022/05/15 09:34:36;;;;;;;;;3.00;3.00;;;;;;;;5084454;27;45934;-76
2022/05/15 09:39:47;;;;;;;;;5.00;5.00;;;;;;;;5080952;28;45354;-75
2022/05/15 09:45:17;;;;;;;;;4.00;3.67;;;;;;;;5080472;28;45374;-76
2022/05/15 09:47:45;;;;;;;;;3.33;3.33;;;;;;;;5083102;27;45438;-76
2022/05/15 09:50:29;;;;;;;;;4.67;4.67;;;;;;;;5079958;27;45285;-77
2022/05/15 09:52:55;;;;;;;;;3.33;3.33;;;;;;;;5080610;27;46210;-77
2022/05/15 09:55:23;;;;;;;;;3.33;3.33;;;;;;;;5079121;28;45366;-77
2022/05/15 09:57:56;;;;;;;;;4.00;4.00;;;;;;;;5083748;27;45408;-75
2022/05/15 10:00:23;;;;;;;;;2.00;2.00;;;;;;;;5080394;28;47114;-78
2022/05/15 10:02:52;;;;;;;;;3.67;3.67;;;;;;;;5079836;28;47234;-77
2022/05/15 10:05:20;;;;;;;;;3.00;3.00;;;;;;;;5080674;27;45303;-77
2022/05/15 10:07:50;;;;;;;;;4.67;4.67;;;;;;;;5080886;27;45332;-76
2022/05/15 10:10:16;;;;;;;;;2.00;2.00;;;;;;;;5080035;28;45651;-75
2022/05/15 10:12:42;;;;;;;;;2.00;2.00;;;;;;;;5081765;27;45653;-77
2022/05/15 10:15:08;;;;;;;;;2.33;2.33;;;;;;;;5080642;28;45482;-76
2022/05/15 10:17:33;;;;;;;;;3.00;3.00;;;;;;;;5082176;27;45436;-75
2022/05/15 10:20:04;;;;;;;;;2.33;2.33;;;;;;;;5080448;28;45391;-75
2022/05/15 10:22:49;;;;;;;;;3.00;3.00;;;;;;;;5079571;27;45407;-76
2022/05/15 10:25:34;;;;;;;;;4.00;3.67;;;;;;;;5079807;28;45208;-75
2022/05/15 10:28:11;;;;;;;;;3.00;3.00;;;;;;;;5079964;27;45317;-76
2022/05/15 10:30:47;;;;;;;;;2.33;1.00;;;;;;;;5079893;27;45342;-76
2022/05/15 10:33:15;;;;;;;;;6.00;5.67;;;;;;;;5079181;28;47234;-76
2022/05/15 10:35:40;;;;;;;;;2.33;2.33;;;;;;;;5079403;27;45360;-75
2022/05/15 10:38:17;;;;;;;;;1.33;1.33;;;;;;;;5079925;27;45481;-77
2022/05/15 10:40:52;;;;;;;;;3.00;3.00;;;;;;;;5078989;27;46346;-76
2022/05/15 10:43:24;;;;;;;;;2.00;2.00;;;;;;;;5079991;27;45506;-78
2022/05/15 10:45:50;;;;;;;;;4.00;3.33;;;;;;;;5079127;28;45381;-75
2022/05/15 10:48:33;;;;;;;;;3.00;2.00;;;;;;;;5078122;28;45513;-76
2022/05/15 10:51:07;;;;;;;;;2.00;1.00;;;;;;;;5080579;27;45452;-76
2022/05/15 10:59:31;;;;;;;;;3.00;3.00;;;;;;;;5089527;27;45372;-75
2022/05/15 11:02:17;;;;;;;;;5.33;5.33;;;;;;;;5101372;27;46286;-77
2022/05/15 11:04:42;;;;;;;;;4.67;4.67;;;;;;;;5069617;27;47545;-76
2022/05/15 11:07:21;;;;;;;;;4.00;4.00;;;;;;;;5082375;27;45326;-76
2022/05/15 11:10:04;;;;;;;;;4.00;2.00;;;;;;;;5085193;28;45441;-76
2022/05/15 11:12:42;;;;;;;;;1.00;1.00;;;;;;;;5084069;27;46367;-76
2022/05/15 11:15:26;;;;;;;;;2.00;2.00;;;;;;;;5095022;27;45196;-78
2022/05/15 11:18:01;;;;;;;;;4.33;3.33;;;;;;;;5086006;27;45287;-77
2022/05/15 11:20:32;;;;;;;;;2.00;2.00;;;;;;;;5084778;27;45412;-77
2022/05/15 11:23:06;;;;;;;;;2.00;2.00;;;;;;;;5094147;27;46385;-77
2022/05/15 11:25:51;;;;;;;;;2.00;2.00;;;;;;;;5101662;27;46166;-76
2022/05/15 11:28:35;;;;;;;;;4.33;3.33;;;;;;;;5087076;27;45525;-77
2022/05/15 11:31:10;;;;;;;;;2.00;2.00;;;;;;;;5099660;27;45413;-76
2022/05/15 11:33:44;;;;;;;;;7.00;4.00;;;;;;;;5083286;27;45345;-78
2022/05/15 11:36:14;;;;;;;;;1.00;1.00;;;;;;;;5084420;27;47077;-76
2022/05/15 11:38:48;;;;;;;;;2.00;2.00;;;;;;;;5080325;27;46089;-78
2022/05/15 11:41:30;;;;;;;;;3.00;3.00;;;;;;;;5079995;27;45518;-77
2022/05/15 11:43:57;;;;;;;;;2.00;2.00;;;;;;;;5080309;27;46052;-76
2022/05/15 11:46:42;;;;;;;;;2.67;2.67;;;;;;;;5081777;27;45439;-77
2022/05/15 11:49:12;;;;;;;;;3.00;3.00;;;;;;;;5078797;27;45582;-78
2022/05/15 11:51:37;;;;;;;;;2.00;2.00;;;;;;;;5097387;27;45330;-78
2022/05/15 11:54:04;;;;;;;;;2.00;2.00;;;;;;;;5098972;27;45833;-78
2022/05/15 11:56:35;;;;;;;;;1.33;1.33;;;;;;;;5099286;27;45367;-78
2022/05/15 11:59:16;;;;;;;;;2.67;2.00;;;;;;;;5098735;27;46370;-79
2022/05/15 12:01:42;;;;;;;;;1.67;1.67;;;;;;;;5093562;27;45610;-76
2022/05/15 12:04:09;;;;;;;;;2.00;2.00;;;;;;;;5083164;27;45386;-78
2022/05/15 12:06:47;;;;;;;;;2.33;2.33;;;;;;;;5087092;27;47287;-78
2022/05/15 12:09:15;;;;;;;;;2.33;2.33;;;;;;;;5096268;27;45347;-79
2022/05/15 12:11:40;;;;;;;;;2.33;2.33;;;;;;;;5081512;27;45304;-79
2022/05/15 12:14:25;;;;;;;;;1.67;1.67;;;;;;;;5081106;27;45409;-77
2022/05/15 12:16:52;;;;;;;;;3.00;3.00;;;;;;;;5098592;27;45712;-80
2022/05/15 12:19:24;;;;;;;;;2.00;2.00;;;;;;;;5086285;27;45529;-79
2022/05/15 12:21:51;;;;;;;;;0.67;0.67;;;;;;;;5083721;27;45443;-78
2022/05/15 12:24:29;;;;;;;;;2.00;2.00;;;;;;;;5081675;27;45386;-76
2022/05/15 12:26:59;;;;;;;;;2.67;2.67;;;;;;;;5081779;27;46150;-74
2022/05/15 12:29:41;;;;;;;;;1.67;1.67;;;;;;;;5082687;27;45380;-79
2022/05/15 12:32:09;;;;;;;;;1.67;1.67;;;;;;;;5081308;28;45429;-79
2022/05/15 12:34:37;;;;;;;;;2.33;2.33;;;;;;;;5081986;27;45295;-79
2022/05/15 12:37:06;;;;;;;;;2.33;2.33;;;;;;;;5081330;27;45381;-79
2022/05/15 12:39:37;;;;;;;;;2.33;2.33;;;;;;;;5081123;28;46275;-79
2022/05/15 12:42:23;;;;;;;;;2.33;2.33;;;;;;;;5085374;27;45339;-79
2022/05/15 12:45:00;;;;;;;;;2.00;2.00;;;;;;;;5083929;28;45545;-79
2022/05/15 12:47:27;;;;;;;;;3.00;3.00;;;;;;;;5084621;27;45381;-79
2022/05/15 12:49:58;;;;;;;;;2.00;2.00;;;;;;;;5082774;28;45257;-77
2022/05/15 12:52:32;;;;;;;;;0.67;0.67;;;;;;;;5083699;27;45325;-78
2022/05/15 12:54:59;;;;;;;;;2.00;2.00;;;;;;;;5082176;27;45413;-77
2022/05/15 12:57:24;;;;;;;;;3.00;2.00;;;;;;;;5081893;28;47483;-78
2022/05/15 12:59:50;;;;;;;;;3.67;2.67;;;;;;;;5080452;28;45333;-77
2022/05/15 13:02:29;;;;;;;;;1.67;1.00;;;;;;;;5082025;27;45373;-76
2022/05/15 13:04:55;;;;;;;;;0.00;0.00;;;;;;;;5082057;27;45452;-77
2022/05/15 13:07:28;;;;;;;;;2.00;2.00;;;;;;;;5081035;27;46221;-76
2022/05/15 13:10:19;;;;;;;;;2.00;2.00;;;;;;;;5080966;28;46258;-80
2022/05/15 13:12:54;;;;;;;;;2.00;2.00;;;;;;;;5078389;27;45388;-77
2022/05/15 13:15:27;;;;;;;;;1.00;1.00;;;;;;;;5093743;27;46246;-79
2022/05/15 13:17:54;;;;;;;;;3.33;2.00;;;;;;;;5121731;27;45341;-75
2022/05/15 13:20:21;;;;;;;;;2.00;2.00;;;;;;;;5120059;27;46196;-77
2022/05/15 13:22:46;;;;;;;;;2.67;2.67;;;;;;;;5120657;27;45317;-77
2022/05/15 13:25:31;;;;;;;;;1.00;1.00;;;;;;;;5081818;27;45477;-74
2022/05/15 13:27:56;;;;;;;;;1.67;1.67;;;;;;;;5081174;27;45422;-73
2022/05/15 13:30:24;;;;;;;;;2.00;2.00;;;;;;;;5094267;27;45563;-73
2022/05/15 13:32:51;;;;;;;;;1.00;1.00;;;;;;;;5100081;27;45742;-73
2022/05/15 13:35:17;;;;;;;;;3.00;3.00;;;;;;;;5100735;27;45474;-71
2022/05/15 13:37:46;;;;;;;;;2.00;2.00;;;;;;;;5100769;27;46112;-72
2022/05/15 13:45:54;;;;;;;;;3.00;3.00;;;;;;;;5100609;27;45546;-73
2022/05/15 13:48:19;;;;;;;;;3.67;3.00;;;;;;;;5100815;27;46377;-71
2022/05/15 13:50:47;;;;;;;;;2.00;2.00;;;;;;;;5100952;27;45326;-73
2022/05/15 13:53:29;;;;;;;;;2.00;2.00;;;;;;;;5089167;27;45358;-72
2022/05/15 13:56:00;;;;;;;;;2.67;2.67;;;;;;;;5079957;27;45381;-73
2022/05/15 13:58:46;;;;;;;;;2.00;2.00;;;;;;;;5091460;27;48233;-74
2022/05/15 14:01:23;;;;;;;;;2.33;2.33;;;;;;;;5080636;27;45301;-73
2022/05/15 14:03:49;;;;;;;;;2.00;2.00;;;;;;;;5080659;27;45350;-74
2022/05/15 14:06:28;;;;;;;;;1.33;1.33;;;;;;;;5080503;28;45528;-74
2022/05/15 14:08:56;;;;;;;;;3.00;3.00;;;;;;;;5080103;27;46086;-74
2022/05/15 14:11:21;;;;;;;;;5.00;3.67;;;;;;;;5079895;27;45396;-74
2022/05/15 14:13:48;;;;;;;;;1.67;1.67;;;;;;;;5080322;27;45215;-73
2022/05/15 14:16:14;;;;;;;;;2.00;2.00;;;;;;;;5097132;27;47036;-72
2022/05/15 14:18:40;;;;;;;;;3.67;3.00;;;;;;;;5082669;27;45987;-73
2022/05/15 14:21:07;;;;;;;;;2.00;2.00;;;;;;;;5080348;27;45295;-73
2022/05/15 14:23:32;;;;;;;;;1.67;1.67;;;;;;;;5080393;27;45448;-73
2022/05/15 14:25:57;;;;;;;;;1.67;1.67;;;;;;;;5088638;27;45452;-79
2022/05/15 14:28:23;;;;;;;;;1.67;1.67;;;;;;;;5086081;27;45455;-78
2022/05/15 14:30:48;;;;;;;;;2.33;2.33;;;;;;;;5088333;27;45494;-76
2022/05/15 14:33:17;;;;;;;;;3.00;2.00;;;;;;;;5087656;27;45318;-76
2022/05/15 14:36:03;;;;;;;;;2.67;2.67;;;;;;;;5101744;27;45254;-77
2022/05/15 14:38:29;;;;;;;;;2.00;2.00;;;;;;;;5081854;27;47436;-74
2022/05/15 14:40:54;;;;;;;;;3.33;2.67;;;;;;;;5083572;27;45531;-75
2022/05/15 14:43:20;;;;;;;;;2.00;2.00;;;;;;;;5095197;27;45230;-76
2022/05/15 14:45:50;;;;;;;;;4.33;3.00;;;;;;;;5098734;27;45794;-79
2022/05/15 14:48:17;;;;;;;;;1.67;1.67;;;;;;;;5088770;27;47107;-77
2022/05/15 14:50:44;;;;;;;;;1.67;1.67;;;;;;;;5094050;27;45361;-77
2022/05/15 14:53:11;;;;;;;;;3.67;3.33;;;;;;;;5098483;27;45345;-76
2022/05/15 14:58:20;;;;;;;;;2.00;2.00;;;;;;;;5099339;27;45341;-75
2022/05/15 15:00:45;;;;;;;;;3.00;3.00;;;;;;;;5098546;27;45331;-74
2022/05/15 15:03:11;;;;;;;;;2.00;2.00;;;;;;;;5100043;27;45733;-75
2022/05/15 15:05:47;;;;;;;;;3.00;2.00;;;;;;;;5088968;27;45531;-75
2022/05/15 15:08:13;;;;;;;;;2.33;2.33;;;;;;;;5077958;28;47150;-75
2022/05/15 15:10:39;;;;;;;;;3.00;3.00;;;;;;;;5079535;27;45346;-73
2022/05/15 15:13:04;;;;;;;;;4.00;4.00;;;;;;;;5078801;27;45298;-75
2022/05/15 15:15:29;;;;;;;;;2.00;2.00;;;;;;;;5095314;27;45331;-74
2022/05/15 15:17:54;;;;;;;;;6.00;6.00;;;;;;;;5120156;27;46225;-74
2022/05/15 15:20:20;;;;;;;;;6.67;6.00;;;;;;;;5120517;27;45369;-75